Time;durP1;ratioP1;P1;durP2;ratioP2;P2;SDS_P1;SDS_P2;PMS_P1;PMS_P2;Temp;Humidity;BMP_temperature;BMP_pressure;BME280_temperature;BME280_humidity;BME280_pressure;Samples;Min_cycle;Max_cycle;Signal;HPM_P1;HPM_P2
2022/03/21 09:23:06;;;;;;;32.10;20.48;;;;;;;10.18;76.41;67899.28;5075294;22;20198;-82
2022/03/21 09:25:32;;;;;;;32.97;22.08;;;;;;;10.23;76.17;67912.97;5035124;28;20532;-83
2022/03/21 09:27:57;;;;;;;29.58;18.98;;;;;;;10.41;74.76;67932.81;5058182;28;20048;-82
2022/03/21 09:30:23;;;;;;;34.25;19.92;;;;;;;;;;5025259;28;20048;-83
2022/03/21 09:32:49;;;;;;;35.22;22.25;;;;;;;10.56;73.48;67949.88;5025709;28;20047;-82
2022/03/21 09:35:14;;;;;;;36.72;21.42;;;;;;;10.80;74.64;67973.88;5040005;28;20044;-83
2022/03/21 09:37:39;;;;;;;33.90;20.83;;;;;;;10.86;72.54;67974.22;5026067;28;20040;-82
2022/03/21 09:40:06;;;;;;;32.05;22.35;;;;;;;;;;5016361;28;20051;-84
2022/03/21 09:42:33;;;;;;;31.40;20.25;;;;;;;11.13;70.38;68009.63;5078731;28;20056;-82
2022/03/21 09:44:59;;;;;;;30.40;18.38;;;;;;;11.09;69.21;67999.75;5056716;28;20468;-83
2022/03/21 09:50:12;;;;;;;32.67;17.45;;;;;;;11.35;70.27;68029.28;5034387;28;20066;-82
2022/03/21 09:52:38;;;;;;;30.27;22.63;;;;;;;11.50;72.01;68051.63;5026041;28;20131;-84
2022/03/21 09:55:04;;;;;;;32.88;20.77;;;;;;;;;;5026111;28;20627;-82
2022/03/21 09:57:30;;;;;;;33.13;20.70;;;;;;;11.77;70.13;68080.59;5059927;28;20044;-81
2022/03/21 09:59:57;;;;;;;31.75;20.63;;;;;;;;;;5044671;28;20137;-82
2022/03/21 10:02:22;;;;;;;31.58;20.50;;;;;;;11.91;68.09;68096.53;5025868;28;20580;-82
2022/03/21 10:04:47;;;;;;;32.92;20.42;;;;;;;11.95;66.70;68096.31;5044107;28;20048;-82
2022/03/21 10:07:13;;;;;;;36.75;23.15;;;;;;;12.05;67.12;68111.88;5036111;28;20056;-82
2022/03/21 10:09:38;;;;;;;31.48;19.75;;;;;;;12.03;66.05;68104.84;5027992;28;20078;-82
2022/03/21 10:12:08;;;;;;;30.77;21.77;;;;;;;;;;5037800;28;20416;-82
2022/03/21 10:14:39;;;;;;;33.13;19.25;;;;;;;12.15;68.67;68123.22;5070267;28;20480;-82
2022/03/21 10:17:10;;;;;;;34.88;20.70;;;;;;;12.17;67.08;68126.06;5009296;28;20053;-82
2022/03/21 10:19:41;;;;;;;29.38;19.85;;;;;;;12.31;68.00;68141.41;5036646;28;20044;-82
2022/03/21 10:22:07;;;;;;;30.15;19.63;;;;;;;;;;5072227;28;20098;-82
2022/03/21 10:24:42;;;;;;;31.77;20.85;;;;;;;12.46;67.52;68152.56;5026080;28;20401;-82
2022/03/21 10:27:24;;;;;;;30.17;21.67;;;;;;;;;;5047407;28;20029;-84
2022/03/21 10:29:51;;;;;;;29.58;20.80;;;;;;;12.59;64.44;68166.75;5051615;28;20505;-83
2022/03/21 10:32:31;;;;;;;29.17;20.05;;;;;;;12.59;64.11;68166.75;5051406;28;20037;-82
2022/03/21 10:35:00;;;;;;;31.80;19.05;;;;;;;;;;5058416;28;20040;-82
2022/03/21 10:37:25;;;;;;;28.08;18.67;;;;;;;;;;5046057;28;20106;-83
2022/03/21 10:39:52;;;;;;;31.13;19.83;;;;;;;12.82;65.14;68192.91;5038840;28;20428;-83
2022/03/21 10:42:18;;;;;;;28.35;17.63;;;;;;;12.99;65.38;68219.09;5041962;28;20294;-83
2022/03/21 10:44:53;;;;;;;33.80;21.75;;;;;;;;;;5053860;28;20046;-82
2022/03/21 10:47:18;;;;;;;33.30;20.48;;;;;;;;;;5044578;28;20127;-82
2022/03/21 10:49:44;;;;;;;31.90;18.97;;;;;;;13.12;65.84;68223.22;5043267;28;20127;-83
2022/03/21 10:52:18;;;;;;;34.58;19.25;;;;;;;13.18;63.07;68238.06;5022627;28;20824;-82
2022/03/21 10:54:50;;;;;;;33.13;20.48;;;;;;;13.25;64.88;68240.09;5062735;28;20063;-83
2022/03/21 10:57:36;;;;;;;33.97;19.27;;;;;;;;;;5019486;28;20072;-82
2022/03/21 11:00:21;;;;;;;31.17;19.73;;;;;;;13.50;65.54;68273.91;5059980;28;20048;-81
2022/03/21 11:03:05;;;;;;;30.05;18.50;;;;;;;13.46;64.19;68263.97;5042408;28;20048;-84
2022/03/21 11:05:33;;;;;;;31.58;21.27;;;;;;;;;;5049835;28;20045;-82
2022/03/21 11:07:58;;;;;;;31.50;21.55;;;;;;;13.64;65.55;68289.25;5048532;28;21561;-83
2022/03/21 11:10:24;;;;;;;32.40;20.67;;;;;;;;;;5076232;28;20403;-82
2022/03/21 11:12:50;;;;;;;28.52;21.33;;;;;;;;;;5062301;28;20093;-84
2022/03/21 11:15:15;;;;;;;32.75;19.20;;;;;;;;;;5029056;28;20056;-82
2022/03/21 11:17:42;;;;;;;30.73;18.35;;;;;;;;;;5079505;28;20040;-82
2022/03/21 11:20:09;;;;;;;30.85;19.70;;;;;;;13.86;63.12;68313.13;5077789;28;20055;-82
2022/03/21 11:22:35;;;;;;;29.25;19.83;;;;;;;;;;5078759;28;20177;-83
2022/03/21 11:25:06;;;;;;;32.95;20.52;;;;;;;13.65;65.05;68285.03;5077986;28;20040;-81
2022/03/21 11:28:05;;;;;;;32.13;21.02;;;;;;;13.83;64.92;68309.72;5074865;28;20055;-83
2022/03/21 11:30:55;;;;;;;29.20;20.95;;;;;;;14.01;64.40;68324.84;5076327;28;20052;-81
2022/03/21 11:34:01;;;;;;;29.30;20.10;;;;;;;14.09;62.91;68333.38;5082865;28;20048;-81
2022/03/21 11:36:26;;;;;;;31.70;20.92;;;;;;;;;;5072561;28;20039;-85
2022/03/21 11:38:57;;;;;;;34.80;21.97;;;;;;;;;;5088963;28;20483;-83
2022/03/21 11:41:24;;;;;;;30.02;21.00;;;;;;;;;;5091287;28;20296;-81
2022/03/21 11:44:04;;;;;;;31.80;21.67;;;;;;;;;;5089364;28;20036;-83
2022/03/21 11:46:32;;;;;;;28.77;21.00;;;;;;;14.56;66.25;68386.34;5089601;28;20040;-80
2022/03/21 11:48:59;;;;;;;33.10;21.10;;;;;;;14.68;62.61;68404.22;5070151;28;20043;-83
2022/03/21 11:51:41;;;;;;;32.03;20.63;;;;;;;14.47;63.81;68376.06;5052450;28;20514;-82
2022/03/21 11:54:23;;;;;;;30.58;21.95;;;;;;;14.59;62.91;68387.09;5050612;28;20404;-82
2022/03/21 11:56:49;;;;;;;32.33;20.88;;;;;;;14.75;61.73;68404.16;5085546;28;20040;-82
2022/03/21 11:59:33;;;;;;;29.30;20.75;;;;;;;;;;5084170;28;20131;-81
2022/03/21 12:02:19;;;;;;;30.70;20.05;;;;;;;14.87;60.30;68421.06;5089950;28;20514;-80
2022/03/21 12:05:11;;;;;;;32.38;23.58;;;;;;;14.80;58.37;68417.88;5051709;28;20048;-81
2022/03/21 12:07:38;;;;;;;32.03;20.58;;;;;;;15.05;62.24;68437.75;5086939;28;20032;-81
2022/03/21 12:10:03;;;;;;;27.77;20.67;;;;;;;15.24;62.11;68461.50;5072209;28;20048;-83
2022/03/21 12:12:41;;;;;;;33.15;20.85;;;;;;;;;;5081147;28;20552;-81
2022/03/21 12:15:13;;;;;;;30.65;19.75;;;;;;;;;;5084285;28;20048;-81
2022/03/21 12:17:45;;;;;;;31.50;22.50;;;;;;;15.69;63.48;68508.97;5068085;28;20040;-81
2022/03/21 12:20:11;;;;;;;28.35;18.30;;;;;;;;;;5099206;28;20056;-81
2022/03/21 12:22:43;;;;;;;31.65;19.33;;;;;;;15.70;59.84;68513.34;5082282;28;20083;-81
2022/03/21 12:25:27;;;;;;;27.48;19.20;;;;;;;15.81;58.22;68519.94;5070407;28;20102;-81
2022/03/21 12:27:58;;;;;;;31.15;19.75;;;;;;;15.82;57.73;68531.81;5064538;28;20036;-81
2022/03/21 12:30:32;;;;;;;31.05;21.70;;;;;;;15.81;61.19;68524.75;5058334;28;20052;-82
2022/03/21 12:33:11;;;;;;;28.73;21.27;;;;;;;15.89;60.84;68531.19;5059806;28;20131;-81
2022/03/21 12:35:45;;;;;;;31.48;18.63;;;;;;;15.96;56.58;68542.41;5067633;28;20055;-82
2022/03/21 12:38:22;;;;;;;27.42;20.25;;;;;;;16.16;60.14;68569.44;5084625;28;20359;-81
2022/03/21 12:40:50;;;;;;;28.75;19.83;;;;;;;16.10;58.55;68554.53;5064103;28;20033;-81
2022/03/21 12:43:24;;;;;;;28.42;21.95;;;;;;;16.07;60.95;68553.81;5067576;28;20126;-82
2022/03/21 12:45:58;;;;;;;29.60;19.48;;;;;;;16.24;56.96;68578.56;5063742;28;20044;-81
2022/03/21 12:48:28;;;;;;;28.58;18.60;;;;;;;;;;5068441;28;20047;-81
2022/03/21 12:50:53;;;;;;;;;;;;;;;16.44;57.85;68595.97;5057277;28;20071;-81
2022/03/21 12:53:19;;;;;;;31.95;21.95;;;;;;;;;;5047261;28;19928;-82
2022/03/21 12:55:46;;;;;;;32.75;19.45;;;;;;;16.50;55.68;68602.25;5056970;28;20040;-81
2022/03/21 12:58:14;;;;;;;31.92;20.92;;;;;;;;;;5064922;28;20543;-81
2022/03/21 13:00:43;;;;;;;30.20;20.40;;;;;;;16.65;54.20;68618.78;5066280;28;20101;-81
2022/03/21 13:03:15;;;;;;;30.90;20.10;;;;;;;16.65;59.48;68613.41;5071621;28;20466;-82
2022/03/21 13:11:25;;;;;;;27.58;19.95;;;;;;;17.12;55.63;68668.59;5074128;28;20059;-83
2022/03/21 13:13:53;;;;;;;29.75;19.75;;;;;;;17.09;60.10;68665.16;5083710;28;20411;-83
2022/03/21 13:16:20;;;;;;;30.88;20.08;;;;;;;17.33;56.88;68691.97;5087452;28;20036;-82
2022/03/21 13:18:46;;;;;;;28.42;21.25;;;;;;;17.45;58.18;68713.72;5088315;28;20100;-82
2022/03/21 13:21:11;;;;;;;31.77;20.95;;;;;;;17.38;57.40;68700.38;5086498;28;20040;-82
2022/03/21 13:23:37;;;;;;;27.52;20.52;;;;;;;17.32;59.23;68691.41;5070648;28;20040;-83
2022/03/21 13:26:14;;;;;;;29.35;20.15;;;;;;;17.55;58.76;68719.16;5089587;28;20506;-83
2022/03/21 13:28:41;;;;;;;29.50;20.10;;;;;;;17.51;54.26;68711.94;5082151;28;20040;-82
2022/03/21 13:31:11;;;;;;;27.17;20.10;;;;;;;17.63;59.06;68727.72;5068883;28;20078;-82
2022/03/21 13:33:39;;;;;;;28.27;20.48;;;;;;;17.51;53.52;68715.19;5069375;28;20035;-82
2022/03/21 13:36:07;;;;;;;30.63;20.42;;;;;;;17.75;57.65;68736.63;5087076;28;20090;-82
2022/03/21 13:38:34;;;;;;;29.87;19.10;;;;;;;;;;5086885;28;20040;-86
2022/03/21 13:41:00;;;;;;;27.17;19.08;;;;;;;18.03;57.15;68773.41;5085403;28;20278;-84
2022/03/21 13:43:28;;;;;;;29.60;20.60;;;;;;;18.17;57.42;68786.13;5087033;28;20032;-86
2022/03/21 13:45:58;;;;;;;28.70;20.23;;;;;;;18.17;56.49;68788.81;5085696;28;20051;-82
2022/03/21 13:48:38;;;;;;;32.05;19.48;;;;;;;18.32;55.88;68804.81;5085203;28;20035;-83
2022/03/21 13:51:24;;;;;;;24.92;19.20;;;;;;;18.18;54.67;68784.59;5078678;28;20560;-82
2022/03/21 13:54:08;;;;;;;28.13;19.27;;;;;;;18.16;56.13;68787.69;5079514;28;20468;-82
2022/03/21 13:56:34;;;;;;;29.02;19.33;;;;;;;18.04;55.22;68771.28;5087567;28;20088;-83
2022/03/21 13:59:16;;;;;;;27.70;20.25;;;;;;;18.29;58.78;68799.25;5085924;28;20040;-83
2022/03/21 14:01:44;;;;;;;28.52;19.92;;;;;;;18.49;55.91;68824.78;5085209;28;20520;-82
2022/03/21 14:04:28;;;;;;;28.73;18.67;;;;;;;18.65;55.81;68839.78;5087440;28;20039;-81
2022/03/21 14:07:05;;;;;;;22.23;16.67;;;;;;;18.62;54.90;68835.81;5086216;28;20293;-85
2022/03/21 14:09:31;;;;;;;24.23;16.25;;;;;;;18.60;52.30;68834.06;5085780;28;20040;-84
2022/03/21 14:12:10;;;;;;;23.95;16.00;;;;;;;18.41;52.26;68815.06;5083576;28;20046;-83
2022/03/21 14:14:36;;;;;;;24.27;15.57;;;;;;;18.15;55.22;68783.25;5098552;28;20040;-85
2022/03/21 14:17:04;;;;;;;23.15;16.25;;;;;;;18.18;54.05;68789.97;5077245;28;20408;-81
2022/03/21 14:19:30;;;;;;;26.42;16.70;;;;;;;18.30;55.26;68802.50;5080712;28;20093;-86
2022/03/21 14:21:56;;;;;;;24.85;16.92;;;;;;;18.52;55.07;68833.03;5087249;28;20522;-82
2022/03/21 14:24:21;;;;;;;25.23;17.40;;;;;;;18.64;55.51;68841.34;5074225;28;20127;-81
2022/03/21 14:26:46;;;;;;;25.95;16.92;;;;;;;18.70;51.84;68848.19;5082878;28;20119;-85
2022/03/21 14:29:14;;;;;;;26.05;17.65;;;;;;;18.83;53.53;68861.91;5079067;28;20557;-84
2022/03/21 14:31:40;;;;;;;27.23;17.50;;;;;;;18.88;53.11;68864.94;5059081;28;20082;-82
2022/03/21 19:05:44;;;;;;;26.23;15.75;;;;;;;11.68;91.43;68066.19;5989868;23;19936;-86
2022/03/21 19:08:09;;;;;;;22.15;15.02;;;;;;;11.65;91.69;68062.19;4972845;28;20046;-85
2022/03/21 19:10:35;;;;;;;20.42;14.73;;;;;;;11.56;91.32;68057.88;4982383;28;20045;-87
2022/03/21 19:32:34;;;;;;;27.80;16.42;;;;;;;10.77;95.72;67969.91;5001069;23;20046;-88
2022/03/21 19:35:00;;;;;;;29.35;16.63;;;;;;;10.74;96.28;67961.72;4963938;28;20061;-86
2022/03/21 19:37:43;;;;;;;26.15;16.77;;;;;;;10.71;97.49;67963.66;4984365;28;20130;-86
2022/03/21 19:43:13;;;;;;;27.83;17.73;;;;;;;10.51;97.50;67944.19;1469021;26;20490;-86
2022/03/21 19:45:40;;;;;;;26.63;16.10;;;;;;;;;;4986176;28;20049;-82
2022/03/21 19:48:06;;;;;;;24.08;16.80;;;;;;;10.38;98.65;67922.00;4977718;28;20658;-83
2022/03/21 19:50:32;;;;;;;28.50;17.02;;;;;;;10.34;98.21;67922.22;4975083;28;20369;-79
2022/03/21 19:52:58;;;;;;;27.45;17.02;;;;;;;10.18;98.41;67899.28;4992671;28;20061;-83
2022/03/21 19:55:25;;;;;;;27.90;16.50;;;;;;;10.09;98.10;67894.97;4987566;28;20584;-84
2022/03/21 19:57:51;;;;;;;23.88;16.85;;;;;;;;;;4995166;28;20130;-82
2022/03/21 20:00:20;;;;;;;28.00;17.98;;;;;;;9.94;99.98;67877.97;4996836;28;20908;-80
2022/03/21 20:02:47;;;;;;;31.13;17.48;;;;;;;9.96;100.00;67885.56;4976491;28;20057;-84
2022/03/21 20:05:13;;;;;;;28.20;17.33;;;;;;;9.93;100.00;67877.41;5000333;28;20038;-81
2022/03/21 20:07:40;;;;;;;27.30;17.98;;;;;;;9.94;99.85;67878.53;4981041;28;20046;-80
2022/03/21 20:10:08;;;;;;;24.98;17.77;;;;;;;9.96;99.81;67879.69;4995314;28;20050;-81
2022/03/21 20:12:33;;;;;;;25.85;18.15;;;;;;;;;;4996859;28;20100;-80
2022/03/21 20:14:58;;;;;;;25.77;17.45;;;;;;;;;;4991761;28;20042;-82
2022/03/21 20:17:24;;;;;;;30.37;19.33;;;;;;;9.75;100.00;67851.09;5003436;28;20082;-79
2022/03/21 20:19:49;;;;;;;31.58;20.52;;;;;;;9.70;100.00;67851.88;4989780;28;20316;-80
2022/03/21 20:25:51;;;;;;;30.52;20.73;;;;;;;;;;4969276;28;20045;-79
2022/03/21 20:28:17;;;;;;;29.73;19.98;;;;;;;9.45;100.00;67823.53;4945729;28;20064;-78
2022/03/21 20:30:42;;;;;;;28.88;20.15;;;;;;;9.41;100.00;67819.00;4979303;28;20097;-81
2022/03/21 20:33:07;;;;;;;31.92;19.90;;;;;;;;;;4988551;28;20052;-81
2022/03/21 20:35:33;;;;;;;30.05;19.52;;;;;;;9.31;100.00;67802.34;5000054;28;20049;-80
2022/03/21 20:37:59;;;;;;;29.63;20.02;;;;;;;9.29;100.00;67805.41;4979081;28;20401;-83
2022/03/21 20:44:11;;;;;;;33.15;21.10;;;;;;;9.15;100.00;67792.75;4975926;28;20100;-83
2022/03/21 20:46:37;;;;;;;32.92;20.42;;;;;;;9.11;100.00;67780.25;4992835;28;20054;-83
2022/03/21 20:56:08;;;;;;;31.85;22.48;;;;;;;8.75;100.00;67748.56;4940075;28;20053;-84
2022/03/21 20:58:34;;;;;;;34.47;23.90;;;;;;;8.74;100.00;67744.75;4982397;28;20557;-84
2022/03/21 21:00:59;;;;;;;42.60;28.10;;;;;;;8.68;100.00;67743.84;4974903;28;20065;-84
2022/03/21 21:03:25;;;;;;;38.28;22.80;;;;;;;8.66;100.00;67735.69;4974680;28;20059;-84
2022/03/21 21:05:50;;;;;;;34.42;22.23;;;;;;;8.62;100.00;67731.72;4980781;28;20910;-84
2022/03/21 21:08:17;;;;;;;34.45;22.77;;;;;;;8.55;100.00;67729.13;4987487;28;20039;-84
2022/03/21 21:10:52;;;;;;;34.78;23.67;;;;;;;;;;4986020;28;20030;-84
2022/03/21 21:13:18;;;;;;;36.78;23.35;;;;;;;;;;4943571;28;20077;-84
2022/03/21 21:18:47;;;;;;;37.25;24.05;;;;;;;8.34;100.00;67701.13;5438509;22;20565;-88
2022/03/21 21:21:13;;;;;;;37.45;23.60;;;;;;;8.35;100.00;67701.69;4999849;28;20041;-88
2022/03/21 21:23:41;;;;;;;35.85;23.27;;;;;;;;;;4983866;28;20064;-88
2022/03/21 21:26:08;;;;;;;39.83;23.48;;;;;;;8.24;100.00;67692.44;4982970;28;20132;-85
2022/03/21 21:28:35;;;;;;;41.05;24.92;;;;;;;8.18;100.00;67685.09;5005417;28;20042;-87
2022/03/21 21:31:03;;;;;;;36.65;23.77;;;;;;;8.18;100.00;67682.44;4993916;28;20125;-88
2022/03/21 21:33:28;;;;;;;39.13;24.08;;;;;;;;;;4972583;28;20038;-87
2022/03/21 21:35:54;;;;;;;40.90;25.58;;;;;;;8.12;100.00;67676.22;4988137;28;20038;-88
2022/03/21 21:38:25;;;;;;;41.78;25.52;;;;;;;8.04;100.00;67667.16;4998988;28;20500;-88
2022/03/21 21:40:58;;;;;;;40.75;26.05;;;;;;;8.05;100.00;67668.84;4993057;28;20049;-87
2022/03/21 21:43:24;;;;;;;41.60;26.83;;;;;;;7.98;100.00;67666.22;4996124;28;20039;-87
2022/03/21 21:45:50;;;;;;;37.75;24.90;;;;;;;7.97;100.00;67659.78;4988907;28;20046;-86
2022/03/21 21:48:16;;;;;;;38.92;24.30;;;;;;;7.90;100.00;67652.41;4974803;28;20128;-86
2022/03/21 21:50:41;;;;;;;43.22;27.30;;;;;;;;;;4987630;28;20046;-87
2022/03/21 21:53:08;;;;;;;43.60;26.50;;;;;;;7.85;100.00;67648.84;4980093;28;20104;-87
2022/03/21 21:55:35;;;;;;;40.65;26.70;;;;;;;;;;5007786;28;20160;-87
2022/03/21 21:58:00;;;;;;;45.00;28.10;;;;;;;7.76;100.00;67636.56;4989645;28;20053;-87
2022/03/21 22:00:26;;;;;;;42.67;26.83;;;;;;;7.72;100.00;67632.06;4981957;28;20042;-86
2022/03/21 22:02:57;;;;;;;45.83;28.83;;;;;;;7.69;100.00;67633.97;4960763;28;20178;-86
2022/03/21 22:05:22;;;;;;;43.63;28.83;;;;;;;;;;4979394;28;20104;-86
2022/03/21 22:07:53;;;;;;;46.05;28.40;;;;;;;7.71;100.00;67630.94;4979617;28;20118;-87
2022/03/21 22:10:19;;;;;;;48.20;29.55;;;;;;;7.67;100.00;67626.38;4955199;28;20046;-88
2022/03/21 22:12:55;;;;;;;43.47;29.10;;;;;;;7.56;100.00;67613.94;4979791;28;20034;-88
2022/03/21 22:15:20;;;;;;;46.38;29.05;;;;;;;7.56;100.00;67616.59;4993078;28;20035;-86
2022/03/21 22:17:49;;;;;;;43.80;29.48;;;;;;;;;;4986985;28;20043;-89
2022/03/21 22:20:14;;;;;;;46.83;28.85;;;;;;;7.45;100.00;67604.69;4976249;28;20055;-86
2022/03/21 22:22:40;;;;;;;46.08;29.85;;;;;;;7.34;100.00;67589.63;4988692;28;20065;-88
2022/03/21 22:25:06;;;;;;;50.45;31.17;;;;;;;7.29;100.00;67587.16;4964862;28;20125;-87
2022/03/21 22:27:32;;;;;;;51.55;30.73;;;;;;;7.30;100.00;67585.63;4987071;28;20063;-88
2022/03/21 22:29:58;;;;;;;51.60;29.75;;;;;;;;;;4987282;28;20081;-90
2022/03/21 22:32:23;;;;;;;47.60;29.55;;;;;;;;;;4971362;28;20077;-88
2022/03/21 22:34:48;;;;;;;46.55;31.15;;;;;;;7.17;100.00;67571.50;4986628;28;20041;-87
2022/03/21 22:37:14;;;;;;;50.30;30.40;;;;;;;7.15;100.00;67569.22;4998802;28;20129;-88
2022/03/21 22:47:37;;;;;;;46.63;28.23;;;;;;;7.09;100.00;67561.88;4999208;28;20038;-87
2022/03/21 22:50:03;;;;;;;48.53;31.17;;;;;;;;;;4991124;28;20053;-87
2022/03/21 22:52:28;;;;;;;49.75;30.35;;;;;;;7.04;100.00;67562.06;4980825;28;20504;-87
2022/03/21 22:54:55;;;;;;;51.88;30.88;;;;;;;;;;4994119;28;20042;-86
2022/03/21 22:57:23;;;;;;;46.63;30.42;;;;;;;6.90;100.00;67544.16;4991189;28;20105;-86
2022/03/21 23:10:09;;;;;;;49.17;30.17;;;;;;;6.60;100.00;67502.28;3332566;26;20046;-78
2022/03/21 23:12:35;;;;;;;50.95;29.60;;;;;;;6.55;100.00;67508.34;4999429;28;20816;-78
2022/03/21 23:15:00;;;;;;;50.35;31.52;;;;;;;6.58;100.00;67505.31;5008802;28;20888;-79
2022/03/21 23:17:25;;;;;;;50.88;30.02;;;;;;;6.51;100.00;67500.63;5069117;23;20017;-91
2022/03/21 23:19:51;;;;;;;48.53;30.83;;;;;;;6.49;100.00;67501.00;4989647;28;20060;-89
2022/03/21 23:22:16;;;;;;;52.97;29.92;;;;;;;6.50;100.00;67502.13;4953547;28;20146;-91
2022/03/21 23:24:41;;;;;;;51.80;29.02;;;;;;;6.40;100.00;67491.38;4969964;28;20133;-89
2022/03/21 23:27:07;;;;;;;49.53;31.00;;;;;;;6.38;100.00;67483.81;4972082;28;20038;-89
2022/03/21 23:29:33;;;;;;;47.17;29.63;;;;;;;6.34;100.00;67481.94;4986773;28;20046;-88
2022/03/21 23:31:59;;;;;;;49.50;29.13;;;;;;;6.30;100.00;67480.06;4989366;28;20064;-89
2022/03/21 23:34:24;;;;;;;47.58;28.63;;;;;;;6.30;100.00;67474.78;4996856;23;20082;-83
2022/03/21 23:36:49;;;;;;;50.22;31.30;;;;;;;;;;4987800;28;20062;-83
2022/03/21 23:39:17;;;;;;;47.13;27.90;;;;;;;6.28;100.00;67472.53;4981288;28;20050;-83
2022/03/21 23:55:44;;;;;;;50.10;31.88;;;;;;;6.10;100.00;67447.47;4956781;28;20060;-83
2022/03/21 23:58:10;;;;;;;52.25;31.50;;;;;;;6.01;100.00;67445.19;4964934;28;20051;-83
